Time;durP1;ratioP1;P1;durP2;ratioP2;P2;SDS_P1;SDS_P2;PMS_P1;PMS_P2;Temp;Humidity;BMP_temperature;BMP_pressure;BME280_temperature;BME280_humidity;BME280_pressure;Samples;Min_cycle;Max_cycle;Signal;HPM_P1;HPM_P2
2021/07/11 00:01:51;;;;;;;5.70;3.00;;;16.60;99.90;;;;;;5025319;28;20030;-67
2021/07/11 00:04:17;;;;;;;6.40;2.95;;;16.60;99.90;;;;;;5025258;28;20026;-67
2021/07/11 00:06:43;;;;;;;6.22;3.47;;;16.60;99.90;;;;;;5024804;28;20045;-68
2021/07/11 00:09:09;;;;;;;4.38;2.47;;;16.60;99.90;;;;;;5025178;28;20472;-67
2021/07/11 00:11:34;;;;;;;7.43;3.40;;;16.50;99.90;;;;;;5024878;28;20050;-67
2021/07/11 00:14:01;;;;;;;10.55;3.00;;;16.50;99.90;;;;;;5025167;28;20054;-67
2021/07/11 00:16:33;;;;;;;4.95;2.90;;;16.50;99.90;;;;;;5025037;28;20030;-66
2021/07/11 00:18:59;;;;;;;5.38;2.90;;;16.50;99.90;;;;;;5025071;28;20033;-67
2021/07/11 00:21:25;;;;;;;6.07;3.47;;;16.50;99.90;;;;;;5025076;28;20073;-68
2021/07/11 00:23:51;;;;;;;6.78;3.33;;;16.50;99.90;;;;;;5025074;28;20157;-68
2021/07/11 00:26:17;;;;;;;5.38;3.05;;;16.50;99.90;;;;;;5025025;28;20487;-68
2021/07/11 00:28:43;;;;;;;4.10;3.13;;;16.50;99.90;;;;;;5025005;28;20033;-68
2021/07/11 00:31:09;;;;;;;7.15;2.78;;;16.50;99.90;;;;;;5024803;28;20049;-67
2021/07/11 00:33:35;;;;;;;5.38;2.90;;;16.50;99.90;;;;;;5024692;28;20022;-67
2021/07/11 00:36:00;;;;;;;6.93;3.17;;;16.50;99.90;;;;;;5024733;28;20026;-67
2021/07/11 00:38:26;;;;;;;5.88;2.50;;;16.40;99.90;;;;;;5024741;28;20034;-67
2021/07/11 00:40:51;;;;;;;7.05;3.92;;;16.40;99.90;;;;;;5024773;28;20034;-67
2021/07/11 00:43:17;;;;;;;6.00;3.05;;;16.40;99.90;;;;;;5024743;28;20026;-69
2021/07/11 00:45:43;;;;;;;4.50;2.83;;;16.40;99.90;;;;;;5024887;28;20109;-69
2021/07/11 00:48:09;;;;;;;5.93;3.08;;;16.40;99.90;;;;;;5024681;28;20093;-68
2021/07/11 00:50:35;;;;;;;8.20;3.78;;;16.40;99.90;;;;;;5024621;28;20476;-67
2021/07/11 00:53:01;;;;;;;7.30;3.65;;;16.30;99.90;;;;;;5024824;28;20447;-67
2021/07/11 00:55:27;;;;;;;5.68;3.47;;;16.30;99.90;;;;;;5024695;28;20041;-67
2021/07/11 00:57:53;;;;;;;7.38;3.40;;;16.30;99.90;;;;;;5027648;28;20030;-67
2021/07/11 01:00:20;;;;;;;5.35;3.58;;;16.30;99.90;;;;;;5028627;28;20026;-67
2021/07/11 01:03:21;;;;;;;5.63;3.42;;;16.30;99.90;;;;;;5028812;28;20037;-68
2021/07/11 01:05:48;;;;;;;7.82;3.10;;;16.30;99.90;;;;;;5028105;28;20042;-68
2021/07/11 01:08:32;;;;;;;5.82;3.42;;;16.30;99.90;;;;;;5028811;28;20026;-69
2021/07/11 01:11:06;;;;;;;5.65;3.20;;;16.30;99.90;;;;;;5028114;28;20046;-68
2021/07/11 01:13:35;;;;;;;7.00;3.80;;;16.20;99.90;;;;;;5028630;28;21051;-67
2021/07/11 01:16:06;;;;;;;4.72;2.92;;;16.20;99.90;;;;;;5026976;28;20931;-68
2021/07/11 01:18:32;;;;;;;5.38;3.17;;;16.20;99.90;;;;;;5028223;28;20038;-67
2021/07/11 01:21:08;;;;;;;6.72;3.50;;;16.20;99.90;;;;;;5028154;28;20030;-67
2021/07/11 01:23:57;;;;;;;8.43;3.58;;;16.20;99.90;;;;;;5028404;28;20614;-67
2021/07/11 01:26:25;;;;;;;12.25;4.40;;;16.30;99.90;;;;;;5028703;28;20029;-67
2021/07/11 01:28:53;;;;;;;9.40;4.18;;;16.20;99.90;;;;;;5028577;28;20037;-67
2021/07/11 01:31:21;;;;;;;7.60;4.05;;;16.20;99.90;;;;;;5027793;28;20440;-68
2021/07/11 01:33:50;;;;;;;4.32;2.65;;;16.20;99.90;;;;;;5028144;28;20586;-68
2021/07/11 01:36:17;;;;;;;8.43;3.55;;;16.20;99.90;;;;;;5028054;28;20026;-68
2021/07/11 01:38:45;;;;;;;5.53;3.95;;;16.20;99.90;;;;;;5028293;28;20034;-68
2021/07/11 01:41:13;;;;;;;6.88;3.97;;;16.20;99.90;;;;;;5028184;28;20026;-67
2021/07/11 01:43:40;;;;;;;6.88;3.80;;;16.20;99.90;;;;;;5026380;28;20034;-67
2021/07/11 01:46:08;;;;;;;6.50;3.60;;;16.20;99.90;;;;;;5027863;28;20468;-67
2021/07/11 01:48:35;;;;;;;7.25;3.22;;;16.20;99.90;;;;;;5027634;28;20065;-67
2021/07/11 01:51:02;;;;;;;8.52;3.55;;;16.20;99.90;;;;;;5027739;28;20038;-67
2021/07/11 01:53:37;;;;;;;5.75;3.13;;;16.10;99.90;;;;;;5026321;28;20029;-67
2021/07/11 01:56:04;;;;;;;6.40;4.03;;;16.10;99.90;;;;;;5027630;28;20113;-67
2021/07/11 01:58:30;;;;;;;6.88;3.72;;;16.10;99.90;;;;;;5027668;28;20053;-67
2021/07/11 02:00:57;;;;;;;8.93;3.55;;;16.10;99.90;;;;;;5027457;28;20053;-68
2021/07/11 02:03:24;;;;;;;6.40;3.40;;;16.10;99.90;;;;;;5027204;28;20120;-68
2021/07/11 02:05:50;;;;;;;6.38;3.92;;;16.00;99.90;;;;;;5027240;28;20056;-68
2021/07/11 02:08:17;;;;;;;9.48;3.67;;;16.00;99.90;;;;;;5027242;28;20081;-68
2021/07/11 02:10:46;;;;;;;7.57;4.13;;;16.00;99.90;;;;;;5025696;28;20033;-68
2021/07/11 02:13:51;;;;;;;10.77;4.00;;;16.00;99.90;;;;;;5027355;28;20030;-67
2021/07/11 02:16:27;;;;;;;5.72;3.85;;;16.00;99.90;;;;;;5024918;28;20030;-69
2021/07/11 02:18:54;;;;;;;7.25;4.25;;;15.90;99.90;;;;;;5026739;28;20048;-67
2021/07/11 02:21:23;;;;;;;8.48;3.72;;;15.90;99.90;;;;;;5026805;28;20030;-68
2021/07/11 02:23:50;;;;;;;7.50;3.72;;;15.90;99.90;;;;;;5027059;28;20428;-68
2021/07/11 02:26:16;;;;;;;8.90;3.67;;;15.90;99.90;;;;;;5027234;28;20026;-67
2021/07/11 02:28:44;;;;;;;15.30;4.15;;;15.90;99.90;;;;;;5027098;28;20024;-68
2021/07/11 02:31:12;;;;;;;7.15;3.95;;;15.90;99.90;;;;;;5027142;28;20092;-67
2021/07/11 02:33:40;;;;;;;12.05;4.32;;;15.80;99.90;;;;;;5026884;28;20021;-67
2021/07/11 02:36:15;;;;;;;12.65;3.53;;;15.80;99.90;;;;;;5026770;28;20162;-67
2021/07/11 02:38:44;;;;;;;;;;;15.80;99.90;;;;;;5027516;28;20022;-67
2021/07/11 02:41:10;;;;;;;7.45;3.63;;;15.80;99.90;;;;;;5026853;28;19986;-68
2021/07/11 02:43:38;;;;;;;7.75;3.25;;;15.80;99.90;;;;;;5026744;28;20041;-67
2021/07/11 02:46:04;;;;;;;11.32;4.70;;;15.70;99.90;;;;;;5026624;28;20078;-67
2021/07/11 02:48:33;;;;;;;8.35;3.83;;;15.80;99.90;;;;;;5026618;28;20034;-67
2021/07/11 02:50:58;;;;;;;8.55;3.97;;;15.70;99.90;;;;;;5026370;28;20037;-68
2021/07/11 02:53:28;;;;;;;11.43;4.40;;;15.70;99.90;;;;;;5026431;28;20392;-67
2021/07/11 02:56:01;;;;;;;9.35;4.72;;;15.70;99.90;;;;;;5026482;28;20033;-68
2021/07/11 02:58:30;;;;;;;8.00;3.42;;;15.70;99.90;;;;;;5026473;28;20057;-67
2021/07/11 03:00:56;;;;;;;5.13;3.75;;;15.70;99.90;;;;;;5026436;28;20069;-68
2021/07/11 03:03:23;;;;;;;8.82;4.00;;;15.70;99.90;;;;;;5026547;28;20512;-68
2021/07/11 03:05:49;;;;;;;6.88;4.00;;;15.70;99.90;;;;;;5026407;28;20025;-68
2021/07/11 03:08:15;;;;;;;7.15;3.70;;;15.70;99.90;;;;;;5026248;28;20059;-68
2021/07/11 03:10:43;;;;;;;6.05;3.67;;;15.70;99.90;;;;;;5026098;28;20050;-68
2021/07/11 03:13:10;;;;;;;6.22;3.63;;;15.70;99.90;;;;;;5026378;28;20028;-68
2021/07/11 03:15:37;;;;;;;7.07;3.97;;;15.70;99.90;;;;;;5026108;28;20049;-67
2021/07/11 03:18:03;;;;;;;9.63;4.18;;;15.70;99.90;;;;;;5026257;28;20033;-67
2021/07/11 03:20:29;;;;;;;7.25;3.65;;;15.70;99.90;;;;;;5025286;28;20050;-67
2021/07/11 03:22:57;;;;;;;6.43;3.95;;;15.70;99.90;;;;;;5025952;28;20081;-67
2021/07/11 03:25:24;;;;;;;9.82;3.95;;;15.70;99.90;;;;;;5025884;28;20022;-67
2021/07/11 03:27:50;;;;;;;7.47;3.95;;;15.70;99.90;;;;;;5026103;28;20022;-67
2021/07/11 03:30:19;;;;;;;6.85;4.07;;;15.70;99.90;;;;;;5025766;28;20045;-68
2021/07/11 03:32:59;;;;;;;10.30;4.25;;;15.70;99.90;;;;;;5026441;28;20026;-68
2021/07/11 03:35:35;;;;;;;7.28;3.58;;;15.70;99.90;;;;;;5026030;28;20080;-68
2021/07/11 03:38:01;;;;;;;6.00;3.97;;;15.70;99.90;;;;;;5025697;28;20464;-67
2021/07/11 03:40:30;;;;;;;11.40;3.83;;;15.70;99.90;;;;;;5025651;28;20073;-68
2021/07/11 03:43:00;;;;;;;7.18;3.92;;;15.70;99.90;;;;;;5025574;28;20033;-67
2021/07/11 03:45:27;;;;;;;7.43;3.47;;;15.70;99.90;;;;;;5025631;28;20097;-67
2021/07/11 03:48:02;;;;;;;7.72;4.00;;;15.70;99.90;;;;;;5025645;28;20022;-67
2021/07/11 03:50:28;;;;;;;6.93;3.60;;;15.70;99.90;;;;;;5025301;28;20038;-68
2021/07/11 03:53:04;;;;;;;6.25;3.47;;;15.70;99.90;;;;;;5025463;28;20064;-68
2021/07/11 03:55:32;;;;;;;6.20;3.42;;;15.70;99.90;;;;;;5025612;28;20037;-67
2021/07/11 03:57:59;;;;;;;6.68;3.65;;;15.80;99.90;;;;;;5025447;28;20085;-67
2021/07/11 04:00:26;;;;;;;6.68;3.50;;;15.70;99.90;;;;;;5025234;28;20029;-68
2021/07/11 04:02:53;;;;;;;9.98;4.18;;;15.80;99.90;;;;;;5025132;28;20088;-68
2021/07/11 04:05:28;;;;;;;7.57;4.20;;;15.80;99.90;;;;;;5025229;28;20107;-68
2021/07/11 04:07:55;;;;;;;6.88;3.90;;;15.80;99.90;;;;;;5025291;28;20075;-69
2021/07/11 04:10:26;;;;;;;9.38;3.58;;;15.80;99.90;;;;;;5025179;28;20065;-68
2021/07/11 04:12:53;;;;;;;6.07;2.80;;;15.80;99.90;;;;;;5024894;28;20058;-68
2021/07/11 04:15:20;;;;;;;7.65;4.03;;;15.90;99.90;;;;;;5025174;28;20074;-68
2021/07/11 04:17:48;;;;;;;5.97;3.10;;;15.90;99.90;;;;;;5025033;28;20036;-68
2021/07/11 04:20:15;;;;;;;5.20;3.08;;;15.90;99.90;;;;;;5025189;28;20022;-68
2021/07/11 04:22:42;;;;;;;6.22;3.55;;;15.90;99.90;;;;;;5022185;28;20500;-69
2021/07/11 04:25:10;;;;;;;6.55;3.67;;;15.90;99.90;;;;;;5024981;28;20025;-68
2021/07/11 04:27:37;;;;;;;7.35;3.47;;;15.90;99.90;;;;;;5013465;28;20049;-69
2021/07/11 04:30:04;;;;;;;5.65;3.65;;;15.90;99.90;;;;;;5005147;28;20053;-68
2021/07/11 04:32:30;;;;;;;7.13;4.28;;;16.00;99.90;;;;;;5019849;28;20488;-69
2021/07/11 04:34:55;;;;;;;5.47;3.05;;;16.00;99.90;;;;;;5024715;28;20029;-69
2021/07/11 04:37:22;;;;;;;6.32;3.90;;;16.00;99.90;;;;;;5024732;28;20030;-69
2021/07/11 04:39:47;;;;;;;6.75;3.72;;;16.00;99.90;;;;;;5023923;28;20076;-68
2021/07/11 04:42:13;;;;;;;4.30;3.25;;;16.10;99.90;;;;;;5024983;28;20025;-69
2021/07/11 04:44:44;;;;;;;7.93;3.83;;;16.10;99.90;;;;;;5024927;28;20057;-69
2021/07/11 04:47:10;;;;;;;6.18;3.13;;;16.10;99.90;;;;;;5022053;28;20034;-68
2021/07/11 04:49:35;;;;;;;6.88;3.58;;;16.10;99.90;;;;;;5021211;28;20562;-69
2021/07/11 04:52:03;;;;;;;5.80;3.35;;;16.20;99.90;;;;;;5012073;28;20235;-69
2021/07/11 04:54:29;;;;;;;5.20;3.15;;;16.20;99.90;;;;;;5002190;28;20041;-68
2021/07/11 04:56:55;;;;;;;8.20;3.75;;;16.20;99.90;;;;;;5022515;28;20116;-69
2021/07/11 04:59:20;;;;;;;5.15;2.95;;;16.20;99.90;;;;;;5024329;28;20025;-69
2021/07/11 05:01:47;;;;;;;10.30;3.95;;;16.30;99.90;;;;;;5024657;28;20030;-69
2021/07/11 05:04:13;;;;;;;6.38;3.90;;;16.30;99.90;;;;;;5024659;28;20109;-69
2021/07/11 05:06:38;;;;;;;4.47;3.13;;;16.30;99.90;;;;;;5024551;28;20477;-68
2021/07/11 05:09:05;;;;;;;7.60;3.40;;;16.40;99.90;;;;;;5024512;28;20030;-70
2021/07/11 05:11:30;;;;;;;8.48;3.72;;;16.40;99.90;;;;;;5024019;28;20053;-69
2021/07/11 05:13:56;;;;;;;6.53;3.58;;;16.40;99.90;;;;;;5024205;28;20037;-70
2021/07/11 05:16:23;;;;;;;7.35;4.03;;;16.30;99.90;;;;;;5024470;28;20029;-69
2021/07/11 05:18:48;;;;;;;7.30;3.35;;;16.40;99.90;;;;;;5024581;28;20107;-70
2021/07/11 05:21:14;;;;;;;6.47;4.15;;;16.50;99.90;;;;;;5024360;28;20033;-69
2021/07/11 05:23:40;;;;;;;7.95;4.00;;;16.50;99.90;;;;;;5020361;28;20095;-69
2021/07/11 05:26:06;;;;;;;7.97;3.58;;;16.40;99.90;;;;;;5014709;28;20031;-69
2021/07/11 05:28:36;;;;;;;6.85;3.65;;;16.50;99.90;;;;;;5014867;28;20038;-70
2021/07/11 05:31:02;;;;;;;5.78;3.45;;;16.60;99.90;;;;;;5004597;28;20081;-69
2021/07/11 05:33:27;;;;;;;8.15;4.05;;;16.60;99.90;;;;;;5004816;28;20035;-69
2021/07/11 05:35:54;;;;;;;5.13;3.40;;;16.60;99.90;;;;;;5004394;28;20035;-69
2021/07/11 05:38:19;;;;;;;6.95;3.95;;;16.70;99.90;;;;;;5004868;28;20076;-70
2021/07/11 05:40:45;;;;;;;6.65;3.70;;;16.80;99.90;;;;;;5004997;28;20054;-70
2021/07/11 05:43:11;;;;;;;6.13;3.47;;;16.80;99.90;;;;;;5006863;28;20065;-69
2021/07/11 05:45:37;;;;;;;8.27;3.67;;;16.80;99.90;;;;;;5008439;28;20062;-69
2021/07/11 05:48:02;;;;;;;7.95;4.13;;;16.80;99.90;;;;;;5008143;28;20038;-69
2021/07/11 05:50:28;;;;;;;7.05;3.95;;;16.90;99.90;;;;;;5008150;28;20042;-69
2021/07/11 05:52:53;;;;;;;7.05;3.80;;;16.90;99.90;;;;;;5008058;28;20037;-69
2021/07/11 05:55:19;;;;;;;10.27;4.28;;;16.90;99.90;;;;;;5008016;28;20066;-70
2021/07/11 05:57:45;;;;;;;8.18;3.60;;;17.00;99.90;;;;;;5008137;28;20030;-69
2021/07/11 06:00:11;;;;;;;8.25;3.67;;;17.00;99.90;;;;;;5008057;28;20034;-69
2021/07/11 06:02:37;;;;;;;9.15;3.28;;;17.00;99.90;;;;;;5007878;28;20076;-69
2021/07/11 06:05:04;;;;;;;6.28;3.65;;;17.00;99.90;;;;;;5019855;28;20030;-67
2021/07/11 06:07:29;;;;;;;6.35;3.47;;;17.10;99.90;;;;;;5009823;28;20038;-68
2021/07/11 06:09:57;;;;;;;9.18;4.28;;;17.10;99.90;;;;;;5015388;28;20046;-68
2021/07/11 06:12:23;;;;;;;5.72;3.33;;;17.20;99.90;;;;;;5026667;28;20053;-69
2021/07/11 06:14:49;;;;;;;7.95;3.53;;;17.30;99.90;;;;;;5013916;28;20042;-70
2021/07/11 06:17:15;;;;;;;8.25;3.60;;;17.30;99.90;;;;;;5007720;28;20037;-69
2021/07/11 06:19:41;;;;;;;8.52;4.15;;;17.40;99.90;;;;;;5006245;28;20027;-68
2021/07/11 06:22:07;;;;;;;9.00;4.57;;;17.50;99.90;;;;;;5006348;28;20046;-68
2021/07/11 06:24:37;;;;;;;7.97;3.90;;;17.50;99.90;;;;;;5007482;28;20026;-68
2021/07/11 06:27:03;;;;;;;8.55;4.25;;;17.60;99.90;;;;;;5007287;28;20030;-68
2021/07/11 06:29:29;;;;;;;8.77;4.18;;;17.70;99.90;;;;;;5007605;28;20030;-69
2021/07/11 06:31:54;;;;;;;6.75;3.60;;;17.80;99.90;;;;;;5007192;28;20034;-69
2021/07/11 06:34:20;;;;;;;9.95;4.43;;;17.80;99.90;;;;;;5007429;28;20030;-69
2021/07/11 06:36:46;;;;;;;6.90;3.20;;;17.90;99.90;;;;;;5007318;28;20026;-67
2021/07/11 06:39:11;;;;;;;5.70;3.33;;;18.00;99.90;;;;;;5006965;28;20022;-68
2021/07/11 06:41:37;;;;;;;10.57;4.10;;;18.00;99.90;;;;;;5007141;28;20042;-68
2021/07/11 06:44:02;;;;;;;5.53;3.55;;;18.10;99.90;;;;;;5006881;28;20022;-68
2021/07/11 06:46:28;;;;;;;7.32;3.95;;;18.10;99.90;;;;;;5007307;28;20488;-68
2021/07/11 06:48:54;;;;;;;7.13;4.00;;;18.20;99.90;;;;;;5006627;28;20057;-68
2021/07/11 06:51:19;;;;;;;5.50;3.58;;;18.20;99.90;;;;;;5006660;28;20046;-68
2021/07/11 06:53:45;;;;;;;4.43;3.20;;;18.30;99.90;;;;;;5006535;28;20109;-68
2021/07/11 06:56:10;;;;;;;7.28;3.47;;;18.40;99.90;;;;;;5006364;28;20505;-69
2021/07/11 06:58:36;;;;;;;5.22;3.20;;;18.40;99.90;;;;;;5006783;28;20039;-69
2021/07/11 07:01:02;;;;;;;5.97;3.75;;;18.50;99.90;;;;;;5007010;28;20034;-69
2021/07/11 07:03:27;;;;;;;8.00;3.65;;;18.60;99.90;;;;;;5004938;28;20057;-69
2021/07/11 07:05:54;;;;;;;7.40;3.92;;;18.70;99.90;;;;;;5023537;28;20068;-69
2021/07/11 07:08:24;;;;;;;6.70;3.70;;;18.70;99.90;;;;;;5018254;28;20030;-70
2021/07/11 07:10:49;;;;;;;5.68;3.58;;;18.80;99.90;;;;;;5008694;28;20042;-69
2021/07/11 07:13:16;;;;;;;7.38;4.18;;;18.90;99.90;;;;;;5025808;28;20037;-70
2021/07/11 07:15:41;;;;;;;7.50;3.97;;;19.00;99.90;;;;;;5021686;28;20037;-69
2021/07/11 07:18:07;;;;;;;7.53;4.60;;;19.10;99.90;;;;;;5006452;28;20034;-68
2021/07/11 07:20:33;;;;;;;9.05;4.30;;;19.10;99.90;;;;;;5006484;28;20069;-69
2021/07/11 07:22:59;;;;;;;9.13;4.38;;;19.20;99.90;;;;;;5005827;28;20093;-69
2021/07/11 07:25:25;;;;;;;11.27;4.55;;;19.30;99.90;;;;;;5006195;28;20030;-69
2021/07/11 07:27:51;;;;;;;6.88;4.35;;;19.40;99.90;;;;;;5006104;28;20023;-70
2021/07/11 07:30:20;;;;;;;6.82;3.72;;;19.50;99.90;;;;;;5006332;28;20092;-69
2021/07/11 07:32:51;;;;;;;6.03;3.40;;;19.60;99.90;;;;;;5006043;28;20432;-68
2021/07/11 07:35:20;;;;;;;11.65;3.92;;;19.60;99.90;;;;;;5015098;28;20121;-69
2021/07/11 07:37:46;;;;;;;8.63;4.20;;;19.80;99.90;;;;;;5014277;28;20087;-70
2021/07/11 07:40:18;;;;;;;5.80;3.72;;;19.90;99.90;;;;;;5007985;28;20069;-69
2021/07/11 07:42:47;;;;;;;5.80;3.85;;;19.90;99.90;;;;;;5010242;28;20034;-69
2021/07/11 07:45:13;;;;;;;9.45;3.80;;;20.00;99.90;;;;;;5005978;28;20036;-69
2021/07/11 07:47:38;;;;;;;6.63;3.78;;;20.10;99.90;;;;;;5021093;28;20120;-69
2021/07/11 07:50:09;;;;;;;6.45;3.80;;;20.20;99.90;;;;;;5006581;28;20683;-69
2021/07/11 07:52:35;;;;;;;7.43;3.47;;;20.30;99.90;;;;;;5025703;28;20030;-69
2021/07/11 07:55:01;;;;;;;7.95;4.28;;;20.40;99.90;;;;;;5025583;28;20038;-69
2021/07/11 07:57:27;;;;;;;8.68;4.45;;;20.40;99.90;;;;;;5025396;28;20030;-68
2021/07/11 07:59:55;;;;;;;11.90;4.70;;;20.40;99.90;;;;;;5025109;28;20018;-70
2021/07/11 08:02:27;;;;;;;8.38;4.10;;;20.50;99.90;;;;;;5009771;28;20038;-69
2021/07/11 08:04:57;;;;;;;7.20;3.67;;;20.60;99.90;;;;;;5018338;28;20053;-69
2021/07/11 08:07:26;;;;;;;7.05;4.32;;;20.70;99.90;;;;;;5006173;28;20066;-69
2021/07/11 08:09:53;;;;;;;7.70;3.78;;;20.80;99.90;;;;;;5005072;28;20034;-69
2021/07/11 08:12:19;;;;;;;6.18;3.92;;;20.90;99.90;;;;;;5017491;28;20053;-71
2021/07/11 08:14:45;;;;;;;8.55;3.42;;;21.00;99.90;;;;;;5025222;28;20495;-69
2021/07/11 08:17:13;;;;;;;9.43;4.50;;;21.10;99.90;;;;;;5022999;28;20034;-69
2021/07/11 08:19:39;;;;;;;8.48;3.75;;;21.10;99.90;;;;;;5005339;28;20026;-69
2021/07/11 08:22:04;;;;;;;7.00;3.90;;;21.20;99.90;;;;;;5005176;28;20057;-68
2021/07/11 08:24:32;;;;;;;7.07;4.30;;;21.30;99.90;;;;;;5005409;28;20033;-68
2021/07/11 08:27:05;;;;;;;7.28;4.50;;;21.40;99.90;;;;;;5005174;28;20022;-68
2021/07/11 08:29:32;;;;;;;11.75;4.03;;;21.50;99.90;;;;;;5005511;28;20102;-67
2021/07/11 08:31:58;;;;;;;9.70;4.90;;;21.60;99.90;;;;;;5004817;28;20490;-68
2021/07/11 08:34:24;;;;;;;12.05;4.72;;;21.70;99.90;;;;;;5005234;28;20034;-69
2021/07/11 08:36:59;;;;;;;8.07;4.25;;;21.80;99.90;;;;;;5011681;28;20442;-69
2021/07/11 08:39:29;;;;;;;6.40;3.47;;;21.90;99.90;;;;;;5016094;28;20105;-68
2021/07/11 08:41:56;;;;;;;7.88;4.20;;;22.00;99.90;;;;;;5009592;28;20034;-68
2021/07/11 08:44:30;;;;;;;9.60;4.43;;;22.10;99.90;;;;;;5010136;28;20156;-67
2021/07/11 08:46:55;;;;;;;6.47;4.32;;;22.20;99.90;;;;;;5021083;28;20113;-67
2021/07/11 08:49:31;;;;;;;7.70;3.45;;;22.30;99.90;;;;;;5011341;28;20031;-67
2021/07/11 08:51:59;;;;;;;5.53;3.53;;;22.40;99.90;;;;;;5014787;28;20042;-67
2021/07/11 08:54:26;;;;;;;7.40;3.80;;;22.50;99.90;;;;;;5017766;28;20034;-67
2021/07/11 08:57:00;;;;;;;6.25;3.70;;;22.60;99.90;;;;;;5026733;28;20030;-67
2021/07/11 08:59:27;;;;;;;6.57;3.95;;;22.70;99.90;;;;;;5004650;28;20477;-67
2021/07/11 09:01:54;;;;;;;6.05;4.13;;;22.80;99.90;;;;;;5004891;28;20030;-67
2021/07/11 09:04:20;;;;;;;8.35;3.45;;;22.90;99.90;;;;;;5022631;28;20033;-67
2021/07/11 09:06:55;;;;;;;6.10;3.83;;;23.00;99.90;;;;;;5003831;28;20023;-66
2021/07/11 09:09:33;;;;;;;7.95;3.90;;;23.10;99.90;;;;;;5004766;28;20037;-68
2021/07/11 09:12:03;;;;;;;12.02;3.90;;;23.20;99.90;;;;;;5004169;28;20061;-67
2021/07/11 09:14:31;;;;;;;9.93;3.80;;;23.30;99.90;;;;;;5004623;28;20049;-67
2021/07/11 09:16:59;;;;;;;5.00;3.08;;;23.50;99.90;;;;;;5004768;28;20037;-67
2021/07/11 09:19:28;;;;;;;4.30;2.92;;;23.60;99.90;;;;;;5008297;28;20030;-67
2021/07/11 09:22:07;;;;;;;5.35;3.15;;;23.70;99.90;;;;;;5008503;28;20533;-68
2021/07/11 09:24:34;;;;;;;6.72;3.80;;;23.80;99.90;;;;;;5008406;28;20042;-66
2021/07/11 09:27:15;;;;;;;8.02;3.33;;;23.90;99.90;;;;;;5008577;28;20026;-66
2021/07/11 09:29:43;;;;;;;20.20;3.58;;;24.00;99.90;;;;;;5008536;28;20042;-68
2021/07/11 09:32:28;;;;;;;5.10;3.33;;;24.10;99.90;;;;;;5008425;28;20038;-68
2021/07/11 09:34:54;;;;;;;5.45;3.28;;;24.10;99.90;;;;;;5008300;28;20088;-67
2021/07/11 09:37:22;;;;;;;5.50;3.35;;;24.20;99.90;;;;;;5008130;28;20041;-67
2021/07/11 09:39:53;;;;;;;7.53;3.33;;;24.20;99.90;;;;;;5007671;28;20026;-68
2021/07/11 09:42:30;;;;;;;7.50;2.80;;;24.30;99.90;;;;;;5005683;28;20030;-69
2021/07/11 09:44:57;;;;;;;6.70;3.83;;;24.40;99.90;;;;;;5007407;28;20037;-67
2021/07/11 09:47:25;;;;;;;5.72;3.42;;;24.50;99.90;;;;;;5007683;28;20479;-67
2021/07/11 09:50:11;;;;;;;4.75;3.30;;;24.50;99.90;;;;;;5007711;28;20035;-68
2021/07/11 09:52:42;;;;;;;4.80;3.38;;;24.60;99.90;;;;;;5007563;28;20045;-68
2021/07/11 09:55:20;;;;;;;3.42;2.30;;;24.70;99.90;;;;;;5007888;28;20034;-67
2021/07/11 09:57:52;;;;;;;5.63;2.92;;;24.80;99.90;;;;;;5008567;28;20041;-68
2021/07/11 10:00:19;;;;;;;8.20;3.83;;;24.90;99.90;;;;;;5009617;28;20030;-70
2021/07/11 10:02:47;;;;;;;4.25;2.97;;;25.00;99.90;;;;;;5008829;28;20026;-67
2021/07/11 10:05:16;;;;;;;6.60;3.38;;;25.00;99.90;;;;;;5006817;28;20019;-66
2021/07/11 10:07:42;;;;;;;5.30;2.97;;;25.10;99.90;;;;;;5007988;28;20519;-67
2021/07/11 10:10:10;;;;;;;5.00;2.90;;;25.20;99.90;;;;;;5007806;28;20086;-67
2021/07/11 10:12:38;;;;;;;5.90;2.85;;;25.30;99.90;;;;;;5007439;28;20460;-68
2021/07/11 10:15:11;;;;;;;4.50;3.05;;;25.40;99.90;;;;;;5007532;28;20080;-67
2021/07/11 10:17:43;;;;;;;21.30;6.60;;;25.40;99.90;;;;;;5007685;28;20057;-67
2021/07/11 10:20:09;;;;;;;6.03;3.50;;;25.40;99.90;;;;;;5007384;28;20034;-67
2021/07/11 10:22:50;;;;;;;5.43;3.15;;;25.50;99.90;;;;;;5007390;28;20026;-68
2021/07/11 10:25:22;;;;;;;6.50;3.92;;;25.70;99.90;;;;;;5007800;28;20027;-68
2021/07/11 10:28:02;;;;;;;6.35;3.47;;;25.80;99.90;;;;;;5007890;28;20100;-68
2021/07/11 10:30:32;;;;;;;5.45;3.50;;;25.90;99.90;;;;;;5007405;28;20042;-67
2021/07/11 10:33:15;;;;;;;4.20;2.70;;;26.00;99.90;;;;;;5007369;28;20026;-68
2021/07/11 10:36:06;;;;;;;4.97;3.20;;;26.00;99.90;;;;;;5007591;28;20109;-70
2021/07/11 10:38:52;;;;;;;5.35;3.42;;;26.10;99.90;;;;;;5007303;28;20035;-67
2021/07/11 10:41:19;;;;;;;7.93;3.22;;;26.10;99.90;;;;;;5007251;28;20035;-69
2021/07/11 10:44:02;;;;;;;6.05;3.40;;;26.10;99.90;;;;;;5007333;28;20523;-68
2021/07/11 10:46:50;;;;;;;5.25;2.95;;;26.10;99.90;;;;;;5007272;28;20022;-69
2021/07/11 10:49:20;;;;;;;3.53;2.63;;;26.30;99.90;;;;;;5007188;28;20030;-70
2021/07/11 10:51:59;;;;;;;5.03;3.03;;;26.50;99.90;;;;;;5007009;28;20038;-69
2021/07/11 10:54:32;;;;;;;4.18;2.35;;;26.70;99.90;;;;;;5015052;28;20045;-68
2021/07/11 10:57:00;;;;;;;3.67;2.90;;;26.90;99.90;;;;;;5026099;28;20061;-68
2021/07/11 10:59:37;;;;;;;4.85;2.83;;;27.00;99.90;;;;;;5006370;28;20026;-69
2021/07/11 11:02:05;;;;;;;17.13;3.10;;;27.20;99.90;;;;;;5005266;28;20034;-68
2021/07/11 11:04:30;;;;;;;6.57;3.10;;;27.30;99.90;;;;;;5006546;28;20030;-70
2021/07/11 11:06:56;;;;;;;4.93;3.00;;;27.60;99.90;;;;;;5006496;28;20121;-68
2021/07/11 11:09:46;;;;;;;10.55;3.15;;;27.60;99.90;;;;;;5006373;28;20022;-68
2021/07/11 11:12:24;;;;;;;4.63;2.85;;;27.60;99.90;;;;;;5005779;28;20089;-68
2021/07/11 11:15:13;;;;;;;4.30;2.90;;;27.70;99.90;;;;;;5003768;28;20034;-68
2021/07/11 11:17:44;;;;;;;3.75;2.10;;;27.90;99.90;;;;;;5006071;28;20031;-69
2021/07/11 11:20:15;;;;;;;3.17;2.17;;;28.10;99.90;;;;;;5005984;28;20041;-68
2021/07/11 11:22:54;;;;;;;4.90;2.72;;;28.20;99.90;;;;;;5005769;28;20034;-69
2021/07/11 11:25:22;;;;;;;4.95;2.72;;;28.40;99.90;;;;;;5006512;28;20040;-68
2021/07/11 11:27:55;;;;;;;3.97;2.90;;;28.50;99.90;;;;;;5006531;28;20489;-71
2021/07/11 11:30:24;;;;;;;4.72;2.67;;;28.70;99.90;;;;;;5006233;28;20060;-70
2021/07/11 11:32:54;;;;;;;4.22;2.58;;;28.80;99.90;;;;;;5006253;28;20370;-68
2021/07/11 11:35:25;;;;;;;16.75;3.15;;;28.90;99.90;;;;;;5006262;28;20121;-68
2021/07/11 11:37:54;;;;;;;4.10;2.70;;;29.10;99.90;;;;;;5006353;28;20030;-68
2021/07/11 11:40:22;;;;;;;3.45;2.42;;;29.00;99.90;;;;;;5005791;28;20019;-70
2021/07/11 11:42:51;;;;;;;3.65;1.85;;;28.90;99.90;;;;;;5006076;28;20564;-67
2021/07/11 11:45:24;;;;;;;5.18;2.63;;;28.90;99.90;;;;;;5006179;28;20029;-71
2021/07/11 11:48:09;;;;;;;3.95;2.78;;;28.80;99.90;;;;;;5006302;28;20077;-69
2021/07/11 11:50:37;;;;;;;6.10;3.13;;;28.40;99.90;;;;;;5005792;28;20042;-68
2021/07/11 11:53:04;;;;;;;6.78;2.65;;;28.10;99.90;;;;;;5005787;28;20500;-68
2021/07/11 11:55:36;;;;;;;4.78;3.25;;;28.20;99.90;;;;;;5005720;28;20046;-68
2021/07/11 11:58:04;;;;;;;5.47;2.58;;;28.20;99.90;;;;;;5005844;28;20031;-68
2021/07/11 12:00:30;;;;;;;4.15;2.53;;;28.40;99.90;;;;;;5005619;28;20030;-69
2021/07/11 12:03:02;;;;;;;4.30;2.72;;;28.70;99.90;;;;;;5006302;28;20030;-71
2021/07/11 12:05:33;;;;;;;4.70;2.60;;;29.10;99.90;;;;;;5022351;28;20040;-70
2021/07/11 12:07:59;;;;;;;4.50;2.95;;;29.40;99.90;;;;;;5024272;28;20026;-69
2021/07/11 12:10:27;;;;;;;5.20;2.63;;;29.70;99.90;;;;;;5024222;28;20127;-69
2021/07/11 12:12:54;;;;;;;4.05;2.80;;;29.80;99.90;;;;;;5026476;28;20080;-69
2021/07/11 12:15:37;;;;;;;3.45;2.08;;;29.50;99.90;;;;;;5024632;28;20098;-68
2021/07/11 12:18:07;;;;;;;3.97;2.42;;;29.10;99.90;;;;;;5024129;28;20069;-69
2021/07/11 12:20:38;;;;;;;3.95;2.45;;;28.80;99.90;;;;;;5024231;28;20421;-68
2021/07/11 12:23:11;;;;;;;3.55;2.20;;;28.80;99.90;;;;;;5023882;28;20025;-68
2021/07/11 12:25:39;;;;;;;3.73;2.43;;;29.00;99.90;;;;;;5023536;28;20026;-69
2021/07/11 12:28:07;;;;;;;3.03;2.38;;;29.40;99.90;;;;;;5023503;28;20100;-68
2021/07/11 12:30:46;;;;;;;4.05;2.25;;;29.80;99.90;;;;;;5023002;28;20156;-68
2021/07/11 12:33:24;;;;;;;3.17;2.00;;;30.10;99.90;;;;;;5023659;28;20025;-68
2021/07/11 12:35:51;;;;;;;3.90;2.20;;;30.40;99.90;;;;;;5023094;28;20456;-70
2021/07/11 12:38:44;;;;;;;4.82;2.50;;;30.30;99.90;;;;;;5023476;28;20026;-72
2021/07/11 12:41:12;;;;;;;3.55;2.17;;;30.40;99.90;;;;;;5023498;28;20061;-69
2021/07/11 12:44:05;;;;;;;2.50;2.00;;;30.60;99.90;;;;;;5021938;28;20037;-68
2021/07/11 12:46:32;;;;;;;4.85;2.70;;;30.60;99.90;;;;;;5022572;28;20042;-68
2021/07/11 12:49:03;;;;;;;3.60;2.08;;;30.50;99.90;;;;;;5023051;28;20033;-68
2021/07/11 12:51:50;;;;;;;6.20;2.67;;;30.40;99.90;;;;;;5021629;28;20393;-69
2021/07/11 12:54:18;;;;;;;4.15;2.70;;;30.10;99.90;;;;;;5026838;28;20084;-70
2021/07/11 12:57:03;;;;;;;8.63;3.28;;;29.60;99.90;;;;;;5028143;28;20026;-69